createdAt,value
2023-10-18T00:00:35.554Z,14.27
2023-10-18T00:01:37.822Z,13.52
2023-10-18T00:02:40.033Z,13.85
2023-10-18T00:03:42.949Z,13.10
2023-10-18T00:04:45.741Z,14.60
2023-10-18T00:05:50.432Z,14.00
2023-10-18T00:06:55.754Z,13.52
2023-10-18T00:07:58.903Z,13.30
2023-10-18T00:09:21.211Z,14.55
2023-10-18T00:10:23.729Z,12.15
2023-10-18T00:11:27.064Z,14.18
2023-10-18T00:12:29.690Z,14.60
2023-10-18T00:13:32.405Z,13.70
2023-10-18T00:14:35.677Z,14.27
2023-10-18T00:15:38.286Z,14.02
2023-10-18T00:16:40.399Z,13.50
2023-10-18T00:17:42.682Z,13.70
2023-10-18T00:18:45.004Z,13.88
2023-10-18T00:19:47.192Z,12.57
2023-10-18T00:20:59.609Z,13.48
2023-10-18T00:22:01.784Z,13.27
2023-10-18T00:23:04.916Z,11.95
2023-10-18T00:24:07.393Z,13.88
2023-10-18T00:25:12.021Z,14.25
2023-10-18T00:27:16.282Z,10.77
2023-10-18T00:28:20.967Z,11.93
2023-10-18T00:29:23.129Z,13.27
2023-10-18T00:30:28.535Z,12.95
2023-10-18T00:31:30.781Z,13.45
2023-10-18T00:32:33.632Z,13.07
2023-10-18T00:33:36.304Z,12.77
2023-10-18T00:34:38.530Z,13.73
2023-10-18T00:35:40.722Z,13.52
2023-10-18T00:36:42.912Z,14.52
2023-10-18T00:37:45.828Z,13.63
2023-10-18T00:38:48.285Z,14.50
2023-10-18T00:39:52.384Z,13.52
2023-10-18T00:40:57.584Z,13.40
2023-10-18T00:42:18.060Z,13.50
2023-10-18T00:43:27.967Z,11.98
2023-10-18T00:44:30.401Z,13.32
2023-10-18T00:45:32.783Z,12.23
2023-10-18T00:46:35.091Z,12.90
2023-10-18T00:47:37.331Z,14.05
2023-10-18T00:48:40.753Z,13.85
2023-10-18T00:49:43.069Z,14.52
2023-10-18T00:50:46.660Z,11.95
2023-10-18T00:51:49.479Z,13.77
2023-10-18T00:52:51.677Z,13.52
2023-10-18T00:53:53.844Z,13.70
2023-10-18T00:54:56.094Z,13.30
2023-10-18T00:56:00.686Z,13.02
2023-10-18T00:57:02.883Z,14.25
2023-10-18T00:58:10.187Z,12.77
2023-10-18T00:59:20.207Z,13.18
2023-10-18T01:00:25.851Z,13.60
2023-10-18T01:01:28.193Z,13.88
2023-10-18T01:02:30.434Z,12.50
2023-10-18T01:03:39.663Z,13.40
2023-10-18T01:04:42.280Z,13.57
2023-10-18T01:05:59.218Z,12.43
2023-10-18T01:07:12.524Z,12.68
2023-10-18T01:08:15.809Z,13.15
2023-10-18T01:09:18.973Z,12.73
2023-10-18T01:10:24.896Z,13.60
2023-10-18T01:11:30.085Z,13.02
2023-10-18T01:12:35.600Z,13.68
2023-10-18T01:13:43.758Z,13.07
2023-10-18T01:14:46.255Z,12.93
2023-10-18T01:15:49.831Z,12.60
2023-10-18T01:16:54.864Z,14.15
2023-10-18T01:17:58.321Z,13.48
2023-10-18T01:19:00.635Z,13.57
2023-10-18T01:20:23.635Z,14.73
2023-10-18T01:21:27.096Z,12.18
2023-10-18T01:22:31.721Z,12.52
2023-10-18T01:23:34.429Z,13.35
2023-10-18T01:24:36.685Z,14.13
2023-10-18T01:25:38.870Z,13.70
2023-10-18T01:26:41.144Z,14.93
2023-10-18T01:27:45.188Z,14.75
2023-10-18T01:28:47.963Z,14.73
2023-10-18T01:29:50.076Z,15.43
2023-10-18T01:30:52.228Z,14.60
2023-10-18T01:31:55.768Z,15.32
2023-10-18T01:32:58.060Z,16.48
2023-10-18T01:34:00.413Z,16.05
2023-10-18T01:35:02.711Z,14.75
2023-10-18T01:36:06.158Z,15.05
2023-10-18T01:37:12.251Z,14.95
2023-10-18T01:38:20.696Z,15.05
2023-10-18T01:39:22.916Z,14.77
2023-10-18T01:40:30.714Z,15.23
2023-10-18T01:41:35.581Z,15.05
2023-10-18T01:42:39.282Z,14.85
2023-10-18T01:43:43.530Z,14.63
2023-10-18T01:44:46.761Z,14.32
2023-10-18T01:45:50.968Z,15.07
2023-10-18T01:46:54.079Z,13.80
2023-10-18T01:47:58.987Z,14.80
2023-10-18T01:50:04.660Z,13.30
2023-10-18T01:51:07.265Z,14.02
2023-10-18T01:52:09.778Z,15.57
2023-10-18T01:53:18.210Z,14.35
2023-10-18T01:54:21.396Z,14.35
2023-10-18T01:55:23.632Z,13.93
2023-10-18T01:56:27.207Z,14.73
2023-10-18T01:57:29.452Z,13.45
2023-10-18T01:58:31.943Z,14.25
2023-10-18T01:59:36.157Z,13.70
2023-10-18T02:00:43.139Z,12.75
2023-10-18T02:01:55.092Z,14.45
2023-10-18T02:02:57.457Z,12.98
2023-10-18T02:04:01.906Z,13.43
2023-10-18T02:05:08.467Z,13.88
2023-10-18T02:06:11.038Z,12.98
2023-10-18T02:07:18.797Z,14.13
2023-10-18T02:08:22.263Z,13.82
2023-10-18T02:09:29.084Z,13.50
2023-10-18T02:10:33.464Z,13.18
2023-10-18T02:11:36.964Z,13.35
2023-10-18T02:12:40.178Z,13.68
2023-10-18T02:13:43.204Z,13.25
2023-10-18T02:14:45.705Z,12.52
2023-10-18T02:15:49.647Z,12.68
2023-10-18T02:16:51.986Z,13.55
2023-10-18T02:17:58.376Z,13.38
2023-10-18T02:19:01.132Z,12.15
2023-10-18T02:20:13.393Z,12.63
2023-10-18T02:21:15.725Z,13.98
2023-10-18T02:22:18.053Z,12.43
2023-10-18T02:23:23.117Z,12.32
2023-10-18T02:24:25.938Z,11.35
2023-10-18T02:25:43.893Z,11.95
2023-10-18T02:26:55.291Z,11.52
2023-10-18T02:28:00.379Z,12.93
2023-10-18T02:29:13.403Z,13.18
2023-10-18T02:30:18.892Z,12.13
2023-10-18T02:31:23.748Z,12.02
2023-10-18T02:33:45.592Z,9.82
2023-10-18T02:34:47.990Z,11.38
2023-10-18T02:35:50.550Z,10.80
2023-10-18T02:36:57.118Z,11.48
2023-10-18T02:37:59.451Z,11.32
2023-10-18T02:39:01.944Z,12.40
2023-10-18T02:40:11.012Z,11.07
2023-10-18T02:41:16.533Z,11.90
2023-10-18T02:42:19.335Z,12.43
2023-10-18T02:43:21.748Z,10.70
2023-10-18T02:44:24.154Z,12.05
2023-10-18T02:45:27.813Z,13.40
2023-10-18T02:46:30.095Z,10.65
2023-10-18T02:47:32.322Z,11.98
2023-10-18T02:48:35.462Z,10.50
2023-10-18T02:49:37.633Z,10.70
2023-10-18T02:50:40.047Z,11.90
2023-10-18T02:51:43.003Z,10.93
2023-10-18T02:52:47.613Z,10.35
2023-10-18T02:53:52.494Z,11.48
2023-10-18T02:56:00.518Z,10.13
2023-10-18T02:57:02.641Z,11.32
2023-10-18T02:58:07.487Z,11.45
2023-10-18T02:59:09.868Z,11.00
2023-10-18T03:00:13.036Z,11.00
2023-10-18T03:01:16.109Z,11.50
2023-10-18T03:02:25.147Z,10.38
2023-10-18T03:03:27.343Z,12.27
2023-10-18T03:04:30.824Z,11.73
2023-10-18T03:05:34.394Z,11.20
2023-10-18T03:06:37.351Z,11.18
2023-10-18T03:07:42.712Z,11.88
2023-10-18T03:08:51.004Z,11.88
2023-10-18T03:09:53.539Z,11.10
2023-10-18T03:10:55.684Z,10.15
2023-10-18T03:11:58.290Z,11.45
2023-10-18T03:13:02.427Z,9.80
2023-10-18T03:14:05.634Z,11.65
2023-10-18T03:15:12.908Z,10.82
2023-10-18T03:16:15.167Z,11.18
2023-10-18T03:17:37.707Z,10.45
2023-10-18T03:18:42.171Z,10.20
2023-10-18T03:19:45.773Z,11.15
2023-10-18T03:20:48.123Z,10.65
2023-10-18T03:21:52.177Z,11.57
2023-10-18T03:22:56.662Z,11.20
2023-10-18T03:23:58.991Z,10.63
2023-10-18T03:25:01.829Z,12.43
2023-10-18T03:26:09.426Z,10.73
2023-10-18T03:27:12.488Z,11.13
2023-10-18T03:28:15.083Z,10.95
2023-10-18T03:29:17.465Z,10.35
2023-10-18T03:30:20.258Z,11.63
2023-10-18T03:31:28.802Z,10.30
2023-10-18T03:32:31.730Z,12.68
2023-10-18T03:33:34.320Z,9.90
2023-10-18T03:34:39.077Z,11.95
2023-10-18T03:35:41.663Z,10.98
2023-10-18T03:36:50.527Z,11.93
2023-10-18T03:37:58.078Z,11.52
2023-10-18T03:39:17.130Z,11.02
2023-10-18T03:40:25.751Z,11.07
2023-10-18T03:41:34.404Z,10.82
2023-10-18T03:42:36.581Z,11.60
2023-10-18T03:43:38.716Z,11.55
2023-10-18T03:44:47.706Z,10.98
2023-10-18T03:46:08.347Z,10.57
2023-10-18T03:47:13.732Z,10.00
2023-10-18T03:48:24.824Z,10.32
2023-10-18T03:49:38.048Z,11.90
2023-10-18T03:50:42.385Z,10.23
2023-10-18T03:51:47.798Z,10.00
2023-10-18T03:52:51.679Z,9.52
2023-10-18T03:53:57.344Z,9.68
2023-10-18T03:55:06.694Z,10.27
2023-10-18T03:56:10.874Z,10.25
2023-10-18T03:57:20.163Z,10.10
2023-10-18T03:58:26.221Z,10.57
2023-10-18T03:59:33.715Z,9.13
2023-10-18T04:00:39.075Z,9.68
2023-10-18T04:01:43.205Z,10.07
2023-10-18T04:02:47.317Z,9.85
2023-10-18T04:03:51.103Z,11.35
2023-10-18T04:04:59.325Z,10.52
2023-10-18T04:06:04.952Z,10.45
2023-10-18T04:07:14.135Z,11.73
2023-10-18T04:08:18.929Z,10.30
2023-10-18T04:09:22.416Z,11.02
2023-10-18T04:10:26.054Z,10.68
2023-10-18T04:11:29.552Z,9.55
2023-10-18T04:12:31.666Z,10.40
2023-10-18T04:13:33.778Z,10.52
2023-10-18T04:14:35.911Z,10.20
2023-10-18T04:15:42.998Z,9.63
2023-10-18T04:16:48.340Z,9.93
2023-10-18T04:18:08.997Z,9.70
2023-10-18T04:19:11.256Z,9.57
2023-10-18T04:20:22.085Z,10.18
2023-10-18T04:21:27.670Z,11.02
2023-10-18T04:22:29.820Z,10.18
2023-10-18T04:23:32.818Z,10.73
2023-10-18T04:24:34.968Z,10.15
2023-10-18T04:25:37.781Z,11.43
2023-10-18T04:26:41.290Z,10.57
2023-10-18T04:27:45.601Z,9.50
2023-10-18T04:28:50.210Z,9.45
2023-10-18T04:29:57.091Z,9.73
2023-10-18T04:31:02.133Z,10.23
2023-10-18T04:32:07.004Z,10.00
2023-10-18T04:33:21.007Z,9.77
2023-10-18T04:34:23.535Z,10.77
2023-10-18T04:35:27.148Z,10.52
2023-10-18T04:36:32.891Z,9.85
2023-10-18T04:37:35.129Z,10.95
2023-10-18T04:38:41.123Z,10.50
2023-10-18T04:39:43.330Z,11.88
2023-10-18T04:40:53.817Z,10.35
2023-10-18T04:41:56.083Z,10.30
2023-10-18T04:42:58.394Z,9.80
2023-10-18T04:44:07.012Z,9.82
2023-10-18T04:45:17.574Z,10.77
2023-10-18T04:46:27.168Z,10.38
2023-10-18T04:47:33.925Z,11.25
2023-10-18T04:49:01.945Z,10.15
2023-10-18T04:50:05.987Z,9.60
2023-10-18T04:51:08.133Z,9.57
2023-10-18T04:52:10.854Z,11.75
2023-10-18T04:53:24.463Z,10.32
2023-10-18T04:54:47.077Z,10.20
2023-10-18T04:55:52.124Z,10.20
2023-10-18T04:56:57.840Z,10.63
2023-10-18T04:58:00.110Z,11.35
2023-10-18T04:59:08.038Z,10.77
2023-10-18T05:00:26.886Z,10.82
2023-10-18T05:01:35.177Z,9.60
2023-10-18T05:02:39.432Z,10.30
2023-10-18T05:03:45.468Z,10.52
2023-10-18T05:04:48.258Z,10.85
2023-10-18T05:05:53.856Z,11.35
2023-10-18T05:06:57.487Z,10.73
2023-10-18T05:08:01.557Z,11.38
2023-10-18T05:09:07.597Z,11.00
2023-10-18T05:10:21.833Z,10.65
2023-10-18T05:11:27.220Z,10.27
2023-10-18T05:12:29.378Z,11.60
2023-10-18T05:13:34.219Z,11.02
2023-10-18T05:15:52.672Z,8.13
2023-10-18T05:18:05.993Z,9.30
2023-10-18T05:19:13.075Z,9.05
2023-10-18T05:20:21.238Z,11.18
2023-10-18T05:21:23.405Z,12.02
2023-10-18T05:22:26.368Z,10.77
2023-10-18T05:23:33.960Z,11.85
2023-10-18T05:24:41.164Z,11.25
2023-10-18T05:25:49.002Z,11.43
2023-10-18T05:26:56.868Z,10.02
2023-10-18T05:28:04.384Z,12.18
2023-10-18T05:29:06.739Z,11.82
2023-10-18T05:30:17.186Z,12.60
2023-10-18T05:31:38.510Z,12.20
2023-10-18T05:32:51.643Z,13.13
2023-10-18T05:34:07.144Z,12.07
2023-10-18T05:35:22.587Z,12.07
2023-10-18T05:36:24.772Z,11.88
2023-10-18T05:37:33.650Z,12.20
2023-10-18T05:38:49.854Z,12.20
2023-10-18T05:40:12.177Z,12.38
2023-10-18T05:41:29.682Z,11.82
2023-10-18T05:42:36.787Z,11.88
2023-10-18T05:43:39.035Z,11.65
2023-10-18T05:44:43.189Z,13.05
2023-10-18T05:45:45.386Z,12.77
2023-10-18T05:46:47.821Z,12.02
2023-10-18T05:47:55.542Z,12.55
2023-10-18T05:48:58.857Z,13.07
2023-10-18T05:50:01.136Z,13.52
2023-10-18T05:51:06.649Z,12.38
2023-10-18T05:52:11.484Z,11.10
2023-10-18T05:53:13.702Z,11.35
2023-10-18T05:54:17.058Z,10.90
2023-10-18T05:55:19.312Z,11.85
2023-10-18T05:56:23.928Z,12.35
2023-10-18T05:57:26.381Z,12.52
2023-10-18T05:58:28.673Z,11.48
2023-10-18T05:59:33.491Z,11.73
2023-10-18T06:00:38.372Z,10.52
2023-10-18T06:02:43.364Z,8.13
2023-10-18T06:03:46.767Z,11.45
2023-10-18T06:04:49.202Z,10.10
2023-10-18T06:05:53.152Z,10.93
2023-10-18T06:07:10.643Z,10.55
2023-10-18T06:08:15.584Z,10.40
2023-10-18T06:09:34.166Z,10.70
2023-10-18T06:10:39.877Z,10.13
2023-10-18T06:11:49.256Z,9.70
2023-10-18T06:12:57.454Z,10.43
2023-10-18T06:14:00.086Z,11.90
2023-10-18T06:15:14.427Z,11.05
2023-10-18T06:16:20.768Z,11.27
2023-10-18T06:17:44.751Z,10.35
2023-10-18T06:18:50.649Z,11.88
2023-10-18T06:19:53.251Z,11.25
2023-10-18T06:20:59.456Z,12.02
2023-10-18T06:22:09.581Z,12.43
2023-10-18T06:23:32.323Z,11.40
2023-10-18T06:24:34.486Z,11.20
2023-10-18T06:25:39.595Z,11.93
2023-10-18T06:26:43.329Z,12.63
2023-10-18T06:27:47.383Z,12.18
2023-10-18T06:28:50.486Z,11.18
2023-10-18T06:29:55.083Z,10.43
2023-10-18T06:31:00.066Z,11.60
2023-10-18T06:32:06.061Z,10.82
2023-10-18T06:33:10.577Z,12.30
2023-10-18T06:34:19.218Z,12.43
2023-10-18T06:35:27.846Z,11.27
2023-10-18T06:36:33.637Z,11.95
2023-10-18T06:37:42.872Z,11.85
2023-10-18T06:38:45.044Z,11.70
2023-10-18T06:39:55.183Z,11.43
2023-10-18T06:41:06.130Z,11.38
2023-10-18T06:42:10.733Z,11.13
2023-10-18T06:43:13.849Z,12.32
2023-10-18T06:44:16.080Z,10.98
2023-10-18T06:45:20.793Z,12.65
2023-10-18T06:46:29.186Z,11.63
2023-10-18T06:47:32.475Z,12.02
2023-10-18T06:48:35.033Z,12.23
2023-10-18T06:49:37.290Z,12.23
2023-10-18T06:50:41.283Z,11.73
2023-10-18T06:51:44.698Z,11.98
2023-10-18T06:52:54.104Z,12.27
2023-10-18T06:53:56.729Z,10.45
2023-10-18T06:54:58.880Z,12.35
2023-10-18T06:56:04.013Z,10.50
2023-10-18T06:57:28.175Z,11.55
2023-10-18T06:58:30.436Z,10.43
2023-10-18T06:59:33.753Z,11.23
2023-10-18T07:00:37.282Z,10.77
2023-10-18T07:02:11.464Z,11.20
2023-10-18T07:03:25.925Z,10.98
2023-10-18T07:04:29.450Z,10.40
2023-10-18T07:05:32.661Z,12.50
2023-10-18T07:06:37.215Z,11.15
2023-10-18T07:07:39.415Z,11.75
2023-10-18T07:08:46.026Z,12.38
2023-10-18T07:09:58.371Z,12.98
2023-10-18T07:11:18.354Z,12.55
2023-10-18T07:12:27.671Z,14.82
2023-10-18T07:13:40.066Z,11.90
2023-10-18T07:14:42.880Z,12.20
2023-10-18T07:15:45.881Z,11.82
2023-10-18T07:16:51.194Z,11.90
2023-10-18T07:17:53.729Z,11.88
2023-10-18T07:19:08.021Z,11.52
2023-10-18T07:20:22.174Z,11.32
2023-10-18T07:21:26.394Z,12.73
2023-10-18T07:22:42.673Z,12.93
2023-10-18T07:23:47.358Z,11.77
2023-10-18T07:24:56.399Z,12.23
2023-10-18T07:26:08.844Z,12.73
2023-10-18T07:27:12.872Z,13.20
2023-10-18T07:28:15.408Z,11.18
2023-10-18T07:29:17.933Z,11.57
2023-10-18T07:30:20.400Z,12.95
2023-10-18T07:31:26.485Z,12.70
2023-10-18T07:32:30.241Z,13.00
2023-10-18T07:33:32.640Z,10.95
2023-10-18T07:34:37.968Z,12.07
2023-10-18T07:35:45.439Z,11.98
2023-10-18T07:36:47.863Z,11.23
2023-10-18T07:37:52.209Z,10.60
2023-10-18T07:38:57.169Z,11.38
2023-10-18T07:40:01.349Z,11.38
2023-10-18T07:41:04.731Z,11.25
2023-10-18T07:42:08.189Z,9.95
2023-10-18T07:43:16.670Z,10.88
2023-10-18T07:44:18.952Z,10.38
2023-10-18T07:45:23.713Z,10.13
2023-10-18T07:47:33.447Z,10.38
2023-10-18T07:48:39.500Z,9.38
2023-10-18T07:49:42.252Z,10.48
2023-10-18T07:50:44.673Z,10.32
2023-10-18T07:51:51.137Z,12.05
2023-10-18T07:52:56.572Z,11.85
2023-10-18T07:54:01.122Z,12.38
2023-10-18T07:56:08.122Z,10.30
2023-10-18T07:57:16.430Z,11.43
2023-10-18T07:58:19.086Z,10.80
2023-10-18T07:59:30.392Z,11.65
2023-10-18T08:00:33.722Z,10.60
2023-10-18T08:01:56.205Z,10.55
2023-10-18T08:02:58.531Z,10.40
2023-10-18T08:04:02.970Z,10.95
2023-10-18T08:05:06.939Z,10.18
2023-10-18T08:06:27.203Z,9.88
2023-10-18T08:07:33.304Z,10.07
2023-10-18T08:08:37.608Z,9.90
2023-10-18T08:09:44.606Z,10.13
2023-10-18T08:10:47.271Z,10.50
2023-10-18T08:11:51.048Z,9.68
2023-10-18T08:13:08.197Z,9.90
2023-10-18T08:14:20.481Z,9.57
2023-10-18T08:15:24.231Z,10.02
2023-10-18T08:16:29.148Z,9.48
2023-10-18T08:17:44.742Z,9.82
2023-10-18T08:18:53.534Z,9.45
2023-10-18T08:20:18.864Z,10.27
2023-10-18T08:21:37.725Z,9.95
2023-10-18T08:22:40.580Z,8.82
2023-10-18T08:23:42.753Z,10.23
2023-10-18T08:24:50.888Z,9.43
2023-10-18T08:26:13.572Z,8.93
2023-10-18T08:27:15.780Z,10.23
2023-10-18T08:28:20.570Z,9.98
2023-10-18T08:29:22.777Z,9.95
2023-10-18T08:30:25.950Z,9.77
2023-10-18T08:31:28.624Z,9.88
2023-10-18T08:32:31.464Z,9.13
2023-10-18T08:33:34.712Z,9.45
2023-10-18T08:34:37.136Z,9.98
2023-10-18T08:35:39.264Z,9.18
2023-10-18T08:36:41.660Z,10.75
2023-10-18T08:37:44.381Z,9.95
2023-10-18T08:38:46.668Z,11.10
2023-10-18T08:39:56.423Z,11.18
2023-10-18T08:41:15.153Z,11.25
2023-10-18T08:42:18.833Z,10.93
2023-10-18T08:43:25.276Z,9.90
2023-10-18T08:44:29.136Z,10.38
2023-10-18T08:45:37.482Z,8.75
2023-10-18T08:47:05.617Z,9.40
2023-10-18T08:48:12.033Z,9.63
2023-10-18T08:49:14.821Z,8.85
2023-10-18T08:50:19.071Z,9.35
2023-10-18T08:51:24.673Z,10.57
2023-10-18T08:52:31.494Z,10.40
2023-10-18T08:53:34.845Z,10.00
2023-10-18T08:54:44.335Z,9.65
2023-10-18T08:55:46.790Z,10.52
2023-10-18T08:56:49.191Z,9.85
2023-10-18T08:57:58.302Z,9.63
2023-10-18T08:59:02.092Z,10.02
2023-10-18T09:00:25.422Z,9.23
2023-10-18T09:01:27.755Z,9.70
2023-10-18T09:02:40.796Z,9.95
2023-10-18T09:03:43.090Z,9.40
2023-10-18T09:04:56.303Z,10.15
2023-10-18T09:06:06.406Z,9.32
2023-10-18T09:07:24.324Z,9.50
2023-10-18T09:08:27.854Z,9.32
2023-10-18T09:09:36.000Z,8.82
2023-10-18T09:10:38.405Z,8.68
2023-10-18T09:11:49.423Z,9.70
2023-10-18T09:12:51.807Z,9.68
2023-10-18T09:14:09.731Z,10.38
2023-10-18T09:15:45.184Z,10.05
2023-10-18T09:17:02.006Z,9.43
2023-10-18T09:18:05.398Z,9.95
2023-10-18T09:19:10.863Z,9.77
2023-10-18T09:20:16.714Z,9.48
2023-10-18T09:21:19.512Z,9.07
2023-10-18T09:22:22.301Z,9.10
2023-10-18T09:23:31.241Z,9.63
2023-10-18T09:24:33.429Z,8.13
2023-10-18T09:25:50.140Z,8.55
2023-10-18T09:26:52.538Z,8.75
2023-10-18T09:28:11.620Z,10.32
2023-10-18T09:29:13.949Z,9.32
2023-10-18T09:30:20.058Z,8.82
2023-10-18T09:31:23.709Z,9.20
2023-10-18T09:32:36.294Z,9.65
2023-10-18T09:33:57.646Z,9.77
2023-10-18T09:35:09.181Z,9.55
2023-10-18T09:36:21.569Z,9.55
2023-10-18T09:37:37.008Z,9.25
2023-10-18T09:38:42.978Z,8.80
2023-10-18T09:39:45.495Z,9.02
2023-10-18T09:40:49.309Z,8.95
2023-10-18T09:41:52.435Z,9.23
2023-10-18T09:42:55.522Z,9.88
2023-10-18T09:44:02.251Z,8.55
2023-10-18T09:45:05.093Z,8.27
2023-10-18T09:46:09.203Z,8.52
2023-10-18T09:47:11.755Z,7.97
2023-10-18T09:48:14.701Z,7.30
2023-10-18T09:49:22.743Z,6.80
2023-10-18T09:50:25.241Z,6.78
2023-10-18T09:51:27.819Z,7.07
2023-10-18T09:52:33.024Z,6.53
2023-10-18T09:53:37.244Z,6.50
2023-10-18T09:54:53.315Z,6.70
2023-10-18T09:55:56.380Z,5.55
2023-10-18T09:57:00.529Z,5.13
2023-10-18T09:58:04.716Z,4.53
2023-10-18T09:59:12.832Z,4.97
2023-10-18T10:00:15.909Z,4.63
2023-10-18T10:01:28.621Z,4.63
2023-10-18T10:02:30.979Z,4.63
2023-10-18T10:03:33.539Z,5.45
2023-10-18T10:04:36.944Z,4.60
2023-10-18T10:05:43.205Z,4.70
2023-10-18T10:06:48.753Z,5.30
2023-10-18T10:07:57.070Z,4.25
2023-10-18T10:09:11.599Z,4.85
2023-10-18T10:10:20.277Z,4.30
2023-10-18T10:11:24.018Z,4.45
2023-10-18T10:12:28.720Z,5.43
2023-10-18T10:13:31.159Z,5.45
2023-10-18T10:14:36.977Z,5.57
2023-10-18T10:15:39.426Z,4.97
2023-10-18T10:16:47.599Z,5.50
2023-10-18T10:17:58.975Z,5.18
2023-10-18T10:19:06.154Z,5.25
2023-10-18T10:20:11.892Z,5.38
2023-10-18T10:21:14.697Z,4.90
2023-10-18T10:22:19.001Z,4.85
2023-10-18T10:23:21.981Z,5.28
2023-10-18T10:24:37.027Z,5.65
2023-10-18T10:25:46.856Z,5.32
2023-10-18T10:27:28.510Z,5.00
2023-10-18T10:29:02.901Z,4.97
2023-10-18T10:30:24.541Z,5.95
2023-10-18T10:31:27.814Z,5.22
2023-10-18T10:32:31.035Z,6.13
2023-10-18T10:34:08.356Z,4.88
2023-10-18T10:35:12.961Z,5.25
2023-10-18T10:37:20.002Z,5.38
2023-10-18T10:38:27.836Z,5.63
2023-10-18T10:39:33.624Z,5.22
2023-10-18T10:40:40.387Z,5.15
2023-10-18T10:41:42.640Z,5.32
2023-10-18T10:42:47.748Z,4.80
2023-10-18T10:44:08.724Z,4.75
2023-10-18T10:45:32.128Z,4.70
2023-10-18T10:46:38.868Z,5.15
2023-10-18T10:47:47.848Z,5.13
2023-10-18T10:48:50.669Z,4.78
2023-10-18T10:49:59.515Z,5.53
2023-10-18T10:51:24.910Z,5.38
2023-10-18T10:52:31.725Z,5.60
2023-10-18T10:53:50.600Z,5.00
2023-10-18T10:55:03.212Z,5.45
2023-10-18T10:56:28.210Z,4.90
2023-10-18T10:57:33.086Z,5.00
2023-10-18T10:58:39.774Z,5.13
2023-10-18T10:59:52.436Z,5.20
2023-10-18T11:01:01.296Z,5.05
2023-10-18T11:02:17.700Z,5.20
2023-10-18T11:03:33.663Z,5.97
2023-10-18T11:04:48.083Z,5.00
2023-10-18T11:05:54.482Z,4.28
2023-10-18T11:06:58.705Z,4.28
2023-10-18T11:08:02.317Z,3.95
2023-10-18T11:09:04.459Z,4.65
2023-10-18T11:10:08.297Z,4.45
2023-10-18T11:11:10.591Z,4.60
2023-10-18T11:12:13.487Z,3.90
2023-10-18T11:13:15.965Z,4.57
2023-10-18T11:14:23.507Z,5.00
2023-10-18T11:15:28.914Z,4.93
2023-10-18T11:16:31.289Z,4.93
2023-10-18T11:17:36.541Z,5.18
2023-10-18T11:18:43.370Z,4.95
2023-10-18T11:19:52.532Z,5.00
2023-10-18T11:21:06.750Z,4.40
2023-10-18T11:22:09.394Z,5.45
2023-10-18T11:23:11.809Z,4.90
2023-10-18T11:24:14.249Z,4.72
2023-10-18T11:25:21.387Z,4.55
2023-10-18T11:26:26.455Z,5.72
2023-10-18T11:27:35.888Z,5.32
2023-10-18T11:28:38.563Z,4.65
2023-10-18T11:29:42.147Z,5.35
2023-10-18T11:30:44.506Z,4.65
2023-10-18T11:31:47.745Z,5.80
2023-10-18T11:32:52.175Z,5.80
2023-10-18T11:34:06.075Z,4.82
2023-10-18T11:35:13.746Z,5.50
2023-10-18T11:36:20.015Z,5.85
2023-10-18T11:37:37.982Z,5.53
2023-10-18T11:38:40.438Z,5.60
2023-10-18T11:39:42.894Z,6.53
2023-10-18T11:40:51.460Z,5.78
2023-10-18T11:41:58.205Z,5.43
2023-10-18T11:43:08.305Z,5.95
2023-10-18T11:44:15.119Z,6.00
2023-10-18T11:45:23.161Z,5.40
2023-10-18T11:46:25.895Z,5.47
2023-10-18T11:47:28.158Z,5.53
2023-10-18T11:48:34.504Z,5.50
2023-10-18T11:49:39.573Z,4.93
2023-10-18T11:50:52.124Z,6.25
2023-10-18T11:51:55.277Z,5.68
2023-10-18T11:52:57.634Z,5.82
2023-10-18T11:53:59.746Z,5.53
2023-10-18T11:55:10.325Z,5.55
2023-10-18T11:56:14.494Z,6.22
2023-10-18T11:57:26.541Z,5.53
2023-10-18T11:58:30.621Z,6.43
2023-10-18T11:59:51.132Z,5.40
2023-10-18T12:01:02.338Z,5.60
2023-10-18T12:02:08.071Z,5.93
2023-10-18T12:03:10.455Z,5.53
2023-10-18T12:04:16.970Z,5.60
2023-10-18T12:05:25.202Z,5.50
2023-10-18T12:06:28.639Z,5.20
2023-10-18T12:07:33.752Z,5.55
2023-10-18T12:09:03.040Z,5.80
2023-10-18T12:10:16.747Z,5.15
2023-10-18T12:11:19.075Z,5.57
2023-10-18T12:12:21.348Z,6.25
2023-10-18T12:13:23.630Z,5.43
2023-10-18T12:14:25.855Z,5.63
2023-10-18T12:15:31.775Z,5.40
2023-10-18T12:16:34.149Z,5.32
2023-10-18T12:17:36.353Z,5.50
2023-10-18T12:18:38.506Z,5.20
2023-10-18T12:19:42.069Z,5.03
2023-10-18T12:20:44.652Z,5.25
2023-10-18T12:21:49.962Z,5.03
2023-10-18T12:22:52.442Z,5.43
2023-10-18T12:23:56.694Z,5.07
2023-10-18T12:24:58.964Z,6.00
2023-10-18T12:26:07.131Z,5.30
2023-10-18T12:27:21.618Z,5.32
2023-10-18T12:28:29.874Z,5.97
2023-10-18T12:29:32.366Z,5.22
2023-10-18T12:30:39.573Z,4.47
2023-10-18T12:31:42.462Z,5.03
2023-10-18T12:32:46.506Z,5.40
2023-10-18T12:33:51.663Z,5.32
2023-10-18T12:34:59.713Z,5.28
2023-10-18T12:36:02.025Z,5.30
2023-10-18T12:37:04.154Z,5.10
2023-10-18T12:38:15.053Z,5.63
2023-10-18T12:39:22.983Z,5.30
2023-10-18T12:40:42.037Z,5.30
2023-10-18T12:41:44.210Z,5.22
2023-10-18T12:42:47.907Z,5.43
2023-10-18T12:43:53.076Z,5.05
2023-10-18T12:44:56.558Z,5.72
2023-10-18T12:45:59.117Z,4.80
2023-10-18T12:47:10.335Z,5.38
2023-10-18T12:48:15.310Z,5.95
2023-10-18T12:49:23.661Z,5.25
2023-10-18T12:50:29.386Z,5.53
2023-10-18T12:51:36.350Z,5.32
2023-10-18T12:52:38.886Z,5.00
2023-10-18T12:53:50.523Z,5.90
2023-10-18T12:54:53.005Z,5.90
2023-10-18T12:55:59.646Z,5.30
2023-10-18T12:57:11.129Z,5.65
2023-10-18T12:58:19.691Z,5.75
2023-10-18T12:59:25.043Z,6.38
2023-10-18T13:00:33.937Z,5.97
2023-10-18T13:01:39.165Z,5.78
2023-10-18T13:03:05.665Z,5.40
2023-10-18T13:04:08.448Z,5.53
2023-10-18T13:05:13.578Z,5.57
2023-10-18T13:06:18.939Z,6.13
2023-10-18T13:07:21.191Z,5.18
2023-10-18T13:08:27.547Z,6.03
2023-10-18T13:09:30.834Z,6.03
2023-10-18T13:10:33.088Z,5.97
2023-10-18T13:11:41.118Z,5.28
2023-10-18T13:12:55.959Z,5.90
2023-10-18T13:13:58.149Z,5.88
2023-10-18T13:15:01.310Z,5.35
2023-10-18T13:16:03.765Z,5.40
2023-10-18T13:17:10.584Z,6.18
2023-10-18T13:18:13.230Z,5.50
2023-10-18T13:19:15.619Z,4.97
2023-10-18T13:20:18.036Z,5.60
2023-10-18T13:21:22.051Z,5.53
2023-10-18T13:22:26.419Z,4.97
2023-10-18T13:23:28.913Z,5.20
2023-10-18T13:24:32.658Z,5.15
2023-10-18T13:25:53.109Z,5.43
2023-10-18T13:27:00.592Z,4.93
2023-10-18T13:28:07.406Z,4.85
2023-10-18T13:29:16.566Z,5.65
2023-10-18T13:30:34.145Z,5.30
2023-10-18T13:31:36.415Z,5.13
2023-10-18T13:32:38.917Z,5.13
2023-10-18T13:33:41.164Z,5.25
2023-10-18T13:34:46.261Z,4.93
2023-10-18T13:35:50.896Z,5.63
2023-10-18T13:36:53.537Z,5.40
2023-10-18T13:38:00.596Z,5.22
2023-10-18T13:39:13.100Z,5.40
2023-10-18T13:40:21.283Z,5.10
2023-10-18T13:41:23.693Z,5.70
2023-10-18T13:42:25.865Z,4.95
2023-10-18T13:43:29.319Z,5.60
2023-10-18T13:44:31.788Z,5.80
2023-10-18T13:45:38.548Z,6.20
2023-10-18T13:46:55.506Z,5.75
2023-10-18T13:48:03.917Z,5.13
2023-10-18T13:49:09.340Z,5.75
2023-10-18T13:50:11.721Z,5.40
2023-10-18T13:51:14.828Z,6.20
2023-10-18T13:52:17.101Z,5.63
2023-10-18T13:53:19.612Z,5.50
2023-10-18T13:54:22.208Z,5.88
2023-10-18T13:55:24.357Z,5.65
2023-10-18T13:56:26.586Z,5.90
2023-10-18T13:57:28.804Z,6.07
2023-10-18T13:58:31.836Z,6.22
2023-10-18T13:59:35.952Z,5.97
2023-10-18T14:00:41.482Z,6.85
2023-10-18T14:01:44.273Z,5.60
2023-10-18T14:02:46.969Z,5.15
2023-10-18T14:03:50.334Z,5.30
2023-10-18T14:04:53.164Z,5.72
2023-10-18T14:05:56.196Z,5.45
2023-10-18T14:07:01.786Z,5.22
2023-10-18T14:08:04.957Z,5.40
2023-10-18T14:09:11.695Z,5.68
2023-10-18T14:10:43.327Z,5.35
2023-10-18T14:11:45.500Z,5.53
2023-10-18T14:12:48.405Z,5.35
2023-10-18T14:13:50.785Z,6.10
2023-10-18T14:14:53.120Z,5.68
2023-10-18T14:15:55.244Z,5.90
2023-10-18T14:16:57.711Z,6.68
2023-10-18T14:18:02.326Z,6.18
2023-10-18T14:19:06.741Z,5.72
2023-10-18T14:20:16.014Z,5.63
2023-10-18T14:21:20.669Z,6.00
2023-10-18T14:22:26.012Z,5.85
2023-10-18T14:23:28.640Z,5.93
2023-10-18T14:24:32.895Z,5.57
2023-10-18T14:25:39.100Z,5.25
2023-10-18T14:26:41.389Z,5.78
2023-10-18T14:27:43.532Z,5.95
2023-10-18T14:28:46.274Z,6.13
2023-10-18T14:29:48.489Z,5.60
2023-10-18T14:30:53.515Z,5.80
2023-10-18T14:31:55.706Z,5.85
2023-10-18T14:33:00.556Z,5.78
2023-10-18T14:34:04.613Z,5.70
2023-10-18T14:35:08.199Z,5.38
2023-10-18T14:36:15.628Z,5.90
2023-10-18T14:37:23.421Z,6.00
2023-10-18T14:38:25.669Z,5.68